Time;durP1;ratioP1;P1;durP2;ratioP2;P2;SDS_P1;SDS_P2;PMS_P1;PMS_P2;Temp;Humidity;BMP_temperature;BMP_pressure;BME280_temperature;BME280_humidity;BME280_pressure;Samples;Min_cycle;Max_cycle;Signal;HPM_P1;HPM_P2
2023/07/01 00:01:51;;;;;;;1.55;1.15;;;;;;;21.23;49.26;100314.56;5171595;28;20051;-80
2023/07/01 00:04:42;;;;;;;1.38;1.27;;;;;;;21.17;49.98;100308.84;5153599;28;20121;-79
2023/07/01 00:07:33;;;;;;;0.45;0.45;;;;;;;21.20;49.33;100305.91;5152777;28;20032;-79
2023/07/01 00:10:25;;;;;;;0.98;0.50;;;;;;;21.17;49.31;100300.84;5158499;28;20031;-80
2023/07/01 00:13:16;;;;;;;0.77;0.60;;;;;;;21.21;49.16;100299.59;5100745;28;20044;-79
2023/07/01 00:16:07;;;;;;;1.45;0.43;;;;;;;21.15;49.58;100300.97;5089593;28;20716;-79
2023/07/01 00:18:58;;;;;;;0.57;0.35;;;;;;;21.12;49.37;100297.66;5163351;28;20112;-79
2023/07/01 00:21:49;;;;;;;7.20;0.98;;;;;;;21.14;49.60;100293.06;5090590;28;20036;-79
2023/07/01 00:24:39;;;;;;;0.30;0.30;;;;;;;21.16;49.39;100288.47;5087015;28;20072;-80
2023/07/01 00:27:30;;;;;;;1.48;0.38;;;;;;;21.00;49.99;100291.47;5149714;28;20506;-79
2023/07/01 00:30:21;;;;;;;0.30;0.30;;;;;;;20.90;50.93;100283.34;5096836;29;20046;-80
2023/07/01 00:33:12;;;;;;;1.17;0.63;;;;;;;21.02;50.01;100284.22;5090291;28;20038;-79
2023/07/01 00:36:03;;;;;;;2.17;0.73;;;;;;;20.98;50.28;100275.59;5152855;28;20047;-79
2023/07/01 00:38:54;;;;;;;5.38;1.38;;;;;;;20.96;50.35;100279.34;5087146;28;20040;-79
2023/07/01 00:41:52;;;;;;;0.38;0.38;;;;;;;20.93;50.16;100269.78;5143249;28;20032;-79
2023/07/01 00:44:43;;;;;;;0.55;0.55;;;;;;;20.96;50.01;100274.03;5155022;28;20035;-79
2023/07/01 00:47:33;;;;;;;0.60;0.50;;;;;;;20.87;50.54;100271.09;5146113;28;20109;-79
2023/07/01 00:50:24;;;;;;;0.63;0.50;;;;;;;20.86;50.86;100263.25;5137432;28;20036;-79
2023/07/01 00:53:16;;;;;;;0.55;0.55;;;;;;;20.89;50.53;100257.66;5161760;28;20155;-79
2023/07/01 00:56:07;;;;;;;0.68;0.68;;;;;;;20.88;50.18;100255.94;5145552;28;20454;-79
2023/07/01 00:58:58;;;;;;;1.48;1.05;;;;;;;20.92;50.12;100258.25;5151281;28;20075;-79
2023/07/01 01:01:54;;;;;;;0.43;0.43;;;;;;;20.90;50.17;100248.69;5155505;28;20038;-79
2023/07/01 01:05:10;;;;;;;0.50;0.50;;;;;;;20.84;50.61;100242.00;5147787;28;20123;-79
2023/07/01 01:08:14;;;;;;;0.30;0.30;;;;;;;20.86;50.74;100247.25;5094480;28;20522;-79
2023/07/01 01:11:06;;;;;;;0.32;0.32;;;;;;;20.84;50.39;100238.50;5087774;28;20036;-78
2023/07/01 01:13:59;;;;;;;0.85;0.70;;;;;;;20.73;51.37;100234.00;5149683;28;20023;-79
2023/07/01 01:16:50;;;;;;;;;;;;;;;20.69;51.72;100229.84;5156700;28;20616;-79
2023/07/01 01:19:51;;;;;;;0.32;0.32;;;;;;;20.78;51.00;100229.16;5162835;28;19915;-79
2023/07/01 01:23:13;;;;;;;0.30;0.30;;;;;;;20.55;51.72;100225.56;5080084;28;20035;-79
2023/07/01 01:26:15;;;;;;;0.20;0.20;;;;;;;20.68;51.13;100213.00;5097859;29;20027;-79
2023/07/01 01:29:06;;;;;;;3.67;1.70;;;;;;;20.71;50.66;100207.44;5162292;28;20044;-79
2023/07/01 01:31:57;;;;;;;0.65;0.45;;;;;;;20.66;51.07;100201.63;5127940;28;20115;-79
2023/07/01 01:34:47;;;;;;;0.47;0.45;;;;;;;20.68;50.87;100201.50;5161785;28;20062;-79
2023/07/01 01:37:47;;;;;;;0.30;0.30;;;;;;;20.71;50.31;100202.09;5147617;28;20032;-79
2023/07/01 01:40:46;;;;;;;0.20;0.20;;;;;;;20.70;50.83;100194.22;5091700;29;20039;-79
2023/07/01 01:43:56;;;;;;;0.32;0.32;;;;;;;20.73;50.71;100188.69;5139947;28;20063;-79
2023/07/01 01:46:47;;;;;;;0.47;0.47;;;;;;;20.67;50.31;100198.00;5133206;28;20166;-79
2023/07/01 01:49:39;;;;;;;0.52;0.45;;;;;;;20.67;50.47;100191.78;5145593;28;20028;-79
2023/07/01 01:52:32;;;;;;;0.28;0.28;;;;;;;20.65;50.66;100191.91;5156447;28;20040;-79
2023/07/01 01:55:23;;;;;;;0.63;0.63;;;;;;;20.68;50.70;100190.81;5086436;28;20037;-79
2023/07/01 01:58:14;;;;;;;0.60;0.45;;;;;;;20.69;50.60;100188.06;5155587;28;20043;-79
2023/07/01 02:01:05;;;;;;;0.43;0.43;;;;;;;20.59;51.54;100189.75;5148364;28;20027;-79
2023/07/01 02:03:56;;;;;;;0.30;0.30;;;;;;;20.57;51.08;100178.34;5092263;28;20039;-79
2023/07/01 02:06:47;;;;;;;0.40;0.40;;;;;;;20.63;50.71;100188.53;5087308;28;20040;-79
2023/07/01 02:09:38;;;;;;;0.50;0.50;;;;;;;20.57;50.80;100168.56;5129170;28;20039;-79
2023/07/01 02:12:29;;;;;;;0.47;0.47;;;;;;;20.53;50.89;100172.41;5082165;28;20036;-79
2023/07/01 02:15:20;;;;;;;0.30;0.30;;;;;;;20.49;51.03;100165.63;5093633;29;20490;-79
2023/07/01 02:18:10;;;;;;;0.32;0.32;;;;;;;20.48;50.89;100168.41;5144417;28;20041;-79
2023/07/01 02:21:04;;;;;;;0.38;0.38;;;;;;;20.48;50.93;100160.41;5162863;28;20452;-79
2023/07/01 02:23:54;;;;;;;0.43;0.43;;;;;;;20.45;50.86;100161.50;5093183;28;20035;-78
2023/07/01 02:26:45;;;;;;;0.20;0.20;;;;;;;20.49;50.83;100157.63;5142211;28;20735;-79
2023/07/01 02:29:36;;;;;;;0.20;0.20;;;;;;;20.48;50.57;100147.94;5092387;29;20031;-79
2023/07/01 02:32:27;;;;;;;0.47;0.47;;;;;;;20.57;50.50;100146.38;5142878;28;20043;-79
2023/07/01 02:35:18;;;;;;;0.43;0.43;;;;;;;20.48;50.79;100142.63;5158433;28;20043;-79
2023/07/01 02:38:08;;;;;;;0.20;0.20;;;;;;;20.50;50.53;100137.16;5096121;28;20070;-79
2023/07/01 02:40:59;;;;;;;0.43;0.43;;;;;;;20.50;50.10;100139.81;5088303;28;20035;-78
2023/07/01 02:43:50;;;;;;;0.40;0.40;;;;;;;20.42;50.80;100140.41;5090886;28;20598;-78
2023/07/01 02:46:41;;;;;;;0.20;0.20;;;;;;;20.49;50.27;100138.13;5094465;28;20028;-79
2023/07/01 02:49:32;;;;;;;0.50;0.50;;;;;;;20.48;50.45;100147.94;5145130;28;20036;-79
2023/07/01 02:52:22;;;;;;;0.35;0.35;;;;;;;20.39;50.29;100144.16;5122071;28;20046;-79
2023/07/01 02:55:14;;;;;;;0.22;0.22;;;;;;;20.41;50.19;100136.91;5147070;28;20039;-79
2023/07/01 02:58:05;;;;;;;0.35;0.35;;;;;;;20.29;50.20;100140.50;5123628;28;20072;-79
2023/07/01 03:00:56;;;;;;;0.52;0.52;;;;;;;20.36;50.12;100144.41;5160034;28;20032;-79
2023/07/01 03:03:49;;;;;;;0.28;0.28;;;;;;;20.31;50.21;100141.25;5145708;28;20036;-79
2023/07/01 03:06:40;;;;;;;;;;;;;;;20.38;49.94;100147.78;5156941;28;20067;-79
2023/07/01 03:09:31;;;;;;;0.20;0.20;;;;;;;20.35;50.09;100144.53;5153532;28;19911;-79
2023/07/01 03:12:21;;;;;;;1.13;0.88;;;;;;;20.28;49.97;100136.19;5145779;28;20043;-79
2023/07/01 03:15:12;;;;;;;6.22;1.92;;;;;;;20.24;49.99;100134.69;5149813;28;20028;-79
2023/07/01 03:18:03;;;;;;;0.30;0.30;;;;;;;20.26;49.91;100138.09;5150049;28;20078;-79
2023/07/01 03:20:56;;;;;;;0.65;0.65;;;;;;;20.25;50.44;100125.75;5096208;28;20039;-79
2023/07/01 03:23:47;;;;;;;0.50;0.50;;;;;;;20.24;49.99;100127.56;5090982;28;20036;-79
2023/07/01 03:26:38;;;;;;;0.20;0.20;;;;;;;20.18;50.14;100119.19;5150258;28;20082;-79
2023/07/01 03:29:29;;;;;;;0.40;0.40;;;;;;;20.25;49.83;100110.59;5149038;28;20031;-79
2023/07/01 03:32:20;;;;;;;0.30;0.30;;;;;;;20.15;50.38;100111.44;5095080;28;20036;-79
2023/07/01 03:35:12;;;;;;;0.30;0.30;;;;;;;20.17;50.46;100117.50;5152560;28;20402;-80
2023/07/01 03:38:03;;;;;;;0.50;0.50;;;;;;;20.10;50.57;100107.31;5093902;28;20052;-79
2023/07/01 03:40:54;;;;;;;0.50;0.50;;;;;;;20.20;50.12;100114.63;5144980;28;20035;-79
2023/07/01 03:43:44;;;;;;;0.30;0.30;;;;;;;20.16;50.16;100115.81;5141174;28;20046;-79
2023/07/01 03:46:35;;;;;;;0.28;0.28;;;;;;;20.09;50.25;100108.28;5153494;28;20521;-79
2023/07/01 03:49:26;;;;;;;0.50;0.50;;;;;;;20.15;50.60;100095.47;5102668;29;20039;-79
2023/07/01 03:52:17;;;;;;;0.40;0.40;;;;;;;20.23;50.04;100098.38;5166183;28;20036;-79
2023/07/01 03:55:14;;;;;;;6.05;0.50;;;;;;;20.07;50.39;100102.22;5141761;28;20089;-79
2023/07/01 03:58:04;;;;;;;0.60;0.28;;;;;;;20.18;49.96;100104.06;5077895;28;20040;-79
2023/07/01 04:00:55;;;;;;;0.22;0.22;;;;;;;20.13;50.32;100101.75;5144664;28;20027;-79
2023/07/01 04:03:46;;;;;;;0.30;0.30;;;;;;;20.15;50.25;100092.78;5151739;28;20121;-79
2023/07/01 04:06:37;;;;;;;0.50;0.50;;;;;;;20.10;50.58;100090.47;5089470;28;20091;-79
2023/07/01 04:09:29;;;;;;;0.30;0.30;;;;;;;20.04;50.71;100083.81;5164301;28;20468;-79
2023/07/01 04:12:19;;;;;;;0.73;0.73;;;;;;;20.04;50.68;100070.50;5155003;28;20044;-79
2023/07/01 04:15:10;;;;;;;0.35;0.35;;;;;;;20.01;50.66;100076.09;5150210;28;20024;-79
2023/07/01 04:18:01;;;;;;;0.38;0.38;;;;;;;20.01;50.70;100069.88;5143288;28;20441;-79
2023/07/01 04:20:53;;;;;;;0.35;0.35;;;;;;;19.94;50.73;100070.38;5145661;28;20032;-79
2023/07/01 04:23:44;;;;;;;0.40;0.40;;;;;;;19.90;50.42;100065.41;5165253;28;20491;-79
2023/07/01 04:26:35;;;;;;;0.43;0.43;;;;;;;20.00;50.63;100073.53;5146783;28;20052;-78
2023/07/01 04:29:26;;;;;;;0.30;0.30;;;;;;;20.06;50.03;100057.91;5151342;28;20085;-79
2023/07/01 04:32:17;;;;;;;0.20;0.20;;;;;;;20.06;50.50;100057.91;5159350;28;20044;-79
2023/07/01 04:35:07;;;;;;;0.30;0.30;;;;;;;20.07;50.30;100056.97;5153110;28;20051;-79
2023/07/01 04:37:58;;;;;;;0.22;0.22;;;;;;;20.09;50.45;100057.69;5154042;28;20491;-79
2023/07/01 04:40:49;;;;;;;0.43;0.43;;;;;;;20.17;50.36;100050.91;5157012;28;20039;-79
2023/07/01 04:43:41;;;;;;;0.32;0.32;;;;;;;20.17;50.83;100050.91;5149961;28;20091;-79
2023/07/01 04:46:32;;;;;;;0.47;0.47;;;;;;;20.20;50.45;100048.03;5148256;28;20043;-80
2023/07/01 04:49:23;;;;;;;0.95;0.40;;;;;;;20.17;50.35;100053.59;5164226;28;20042;-79
2023/07/01 04:52:15;;;;;;;0.20;0.20;;;;;;;20.10;50.96;100055.88;5152650;28;20090;-80
2023/07/01 04:55:06;;;;;;;0.20;0.20;;;;;;;20.07;50.86;100056.97;5150225;28;20027;-80
2023/07/01 04:57:57;;;;;;;0.30;0.30;;;;;;;20.08;51.53;100047.16;5151610;28;20039;-80
2023/07/01 05:00:48;;;;;;;0.40;0.40;;;;;;;20.12;50.88;100041.47;5155076;28;20039;-80
2023/07/01 05:03:38;;;;;;;0.20;0.20;;;;;;;20.18;50.96;100039.31;5152874;28;20060;-80
2023/07/01 05:06:30;;;;;;;0.73;0.73;;;;;;;20.21;51.07;100039.03;5154754;28;20044;-80
2023/07/01 05:09:21;;;;;;;0.47;0.47;;;;;;;20.24;50.76;100044.13;5101935;28;20032;-80
2023/07/01 05:12:13;;;;;;;0.30;0.30;;;;;;;20.29;50.97;100036.63;5165592;28;20063;-80
2023/07/01 05:15:04;;;;;;;0.57;0.57;;;;;;;20.20;51.37;100035.53;5088675;28;20028;-80
2023/07/01 05:17:55;;;;;;;0.20;0.20;;;;;;;20.18;51.54;100032.16;5150474;28;20091;-80
2023/07/01 05:20:46;;;;;;;0.40;0.40;;;;;;;20.28;51.28;100030.47;5153763;28;20049;-80
2023/07/01 05:23:36;;;;;;;3.03;0.88;;;;;;;20.26;51.79;100026.22;5150455;28;20118;-79
2023/07/01 05:26:27;;;;;;;8.30;1.27;;;;;;;20.35;51.46;100024.63;5165180;28;20048;-79
2023/07/01 05:29:20;;;;;;;0.30;0.30;;;;;;;20.16;51.96;100031.44;5162140;28;20119;-77
2023/07/01 05:32:11;;;;;;;0.40;0.40;;;;;;;20.14;51.82;100022.72;5144845;28;20036;-78
2023/07/01 05:35:02;;;;;;;0.57;0.57;;;;;;;19.70;52.94;100033.16;5149158;28;20110;-77
2023/07/01 05:37:54;;;;;;;0.50;0.50;;;;;;;19.76;53.26;100027.38;5148467;28;20044;-77
2023/07/01 05:40:45;;;;;;;0.20;0.20;;;;;;;19.57;54.07;100030.59;5155309;28;20501;-78
2023/07/01 05:43:35;;;;;;;0.52;0.52;;;;;;;19.55;54.19;100036.97;5139170;28;20043;-78
2023/07/01 05:46:26;;;;;;;0.40;0.40;;;;;;;19.61;54.55;100039.19;5148427;28;20068;-78
2023/07/01 05:49:17;;;;;;;0.30;0.30;;;;;;;19.44;55.88;100038.66;5158661;28;20043;-79
2023/07/01 05:52:08;;;;;;;0.20;0.20;;;;;;;19.47;56.45;100046.38;5151309;28;20047;-79
2023/07/01 05:54:58;;;;;;;0.20;0.20;;;;;;;19.39;59.78;100053.25;5156538;28;20023;-79
2023/07/01 05:57:50;;;;;;;0.32;0.32;;;;;;;19.28;61.60;100046.09;5145123;28;20099;-79
2023/07/01 06:00:40;;;;;;;0.20;0.20;;;;;;;19.31;61.92;100041.38;5142722;28;20478;-78
2023/07/01 06:03:32;;;;;;;1.13;0.95;;;;;;;19.03;63.09;100045.22;5142211;28;20056;-79
2023/07/01 06:06:23;;;;;;;0.43;0.43;;;;;;;18.99;63.47;100035.78;5161791;28;20049;-79
2023/07/01 06:09:15;;;;;;;0.35;0.35;;;;;;;19.01;63.16;100034.69;5141749;28;20139;-78
2023/07/01 06:12:06;;;;;;;0.20;0.20;;;;;;;19.17;62.39;100025.59;5148598;28;20681;-79
2023/07/01 06:14:57;;;;;;;7.68;2.17;;;;;;;18.80;63.83;100039.72;5159447;28;20111;-79
2023/07/01 06:17:48;;;;;;;0.30;0.30;;;;;;;19.12;61.69;100035.72;5146653;28;20047;-79
2023/07/01 06:20:39;;;;;;;0.20;0.20;;;;;;;19.23;62.43;100026.94;5144913;28;20086;-79
2023/07/01 06:23:30;;;;;;;0.88;0.55;;;;;;;19.17;62.63;100029.09;5154317;28;20036;-79
2023/07/01 06:26:22;;;;;;;0.40;0.40;;;;;;;19.27;61.68;100023.94;5145493;28;20052;-79
2023/07/01 06:29:13;;;;;;;0.73;0.68;;;;;;;19.33;62.94;100027.94;5148709;28;20635;-79
2023/07/01 06:32:04;;;;;;;0.85;0.85;;;;;;;19.34;61.68;100027.81;5143195;28;20074;-79
2023/07/01 06:34:55;;;;;;;0.35;0.35;;;;;;;19.34;62.80;100027.00;5155469;28;20025;-79
2023/07/01 06:37:46;;;;;;;0.30;0.30;;;;;;;19.48;60.17;100026.78;5145933;28;20545;-80
2023/07/01 06:40:37;;;;;;;1.13;0.90;;;;;;;19.41;62.49;100025.56;5149887;28;20035;-80
2023/07/01 06:43:28;;;;;;;0.55;0.55;;;;;;;19.53;62.93;100021.13;5159063;28;20459;-80
2023/07/01 06:46:19;;;;;;;0.35;0.35;;;;;;;19.49;63.08;100022.34;5158503;28;20035;-80
2023/07/01 06:49:10;;;;;;;0.60;0.60;;;;;;;19.48;62.77;100021.47;5145676;28;20167;-80
2023/07/01 06:52:01;;;;;;;0.30;0.30;;;;;;;19.70;61.70;100019.84;5156576;28;20068;-80
2023/07/01 06:54:52;;;;;;;0.50;0.50;;;;;;;19.54;63.09;100020.16;5150485;28;20036;-80
2023/07/01 06:57:43;;;;;;;0.60;0.52;;;;;;;19.63;63.55;100013.28;5155029;28;20043;-80
2023/07/01 07:00:34;;;;;;;0.77;0.75;;;;;;;19.60;63.22;100006.38;5139528;28;20043;-80
2023/07/01 07:03:25;;;;;;;0.47;0.47;;;;;;;19.77;62.34;100007.78;5145476;28;20499;-78
2023/07/01 07:06:16;;;;;;;0.20;0.20;;;;;;;19.65;64.03;100000.72;5149368;28;20636;-79
2023/07/01 07:09:06;;;;;;;0.30;0.30;;;;;;;19.74;62.19;99994.69;5151507;28;20091;-80
2023/07/01 07:11:57;;;;;;;0.30;0.30;;;;;;;19.50;65.60;99997.44;5188106;23;20052;-92
2023/07/01 07:14:48;;;;;;;0.60;0.60;;;;;;;19.54;65.10;99998.88;5171849;28;20801;-91
2023/07/01 07:25:33;;;;;;;2.83;0.80;;;;;;;19.52;64.43;99994.66;5115986;28;20696;-88
2023/07/01 07:28:24;;;;;;;2.05;0.95;;;;;;;19.66;64.02;99997.09;5185460;28;20055;-87
2023/07/01 07:31:15;;;;;;;1.02;0.95;;;;;;;19.55;66.32;99987.28;5169504;28;20039;-86
2023/07/01 07:34:06;;;;;;;0.32;0.32;;;;;;;19.57;65.12;99987.16;5171811;28;20048;-88
2023/07/01 07:36:57;;;;;;;0.38;0.38;;;;;;;19.73;63.42;99997.47;5163982;28;20120;-86
2023/07/01 07:39:48;;;;;;;0.43;0.43;;;;;;;19.82;63.91;99992.28;5165680;28;20039;-89
2023/07/01 07:42:41;;;;;;;0.22;0.22;;;;;;;19.88;62.96;99995.44;5159972;28;20081;-88
2023/07/01 07:45:32;;;;;;;0.40;0.40;;;;;;;19.84;64.28;99993.97;5169997;28;20044;-89
2023/07/01 07:48:23;;;;;;;0.30;0.30;;;;;;;19.81;64.04;99995.91;5170390;28;20070;-90
2023/07/01 07:51:13;;;;;;;0.30;0.30;;;;;;;19.94;63.83;99989.66;5152882;28;20038;-88
2023/07/01 07:54:04;;;;;;;0.20;0.20;;;;;;;19.92;64.86;99988.94;5166872;28;20062;-90
2023/07/01 07:56:59;;;;;;;0.60;0.60;;;;;;;19.74;64.56;100000.00;5099659;28;20024;-89
2023/07/01 07:59:50;;;;;;;0.17;0.17;;;;;;;19.68;65.91;99989.84;5156538;28;20039;-88
2023/07/01 08:02:44;;;;;;;0.35;0.35;;;;;;;19.64;65.77;99985.72;5167068;28;20031;-89
2023/07/01 08:05:35;;;;;;;0.20;0.20;;;;;;;19.73;65.83;99987.66;5154648;28;20059;-88
2023/07/01 08:08:25;;;;;;;0.20;0.20;;;;;;;19.82;65.30;99978.97;5155521;28;20336;-84
2023/07/01 08:11:16;;;;;;;0.20;0.20;;;;;;;19.80;65.67;99978.22;5169395;28;20158;-86
2023/07/01 08:14:07;;;;;;;2.72;1.10;;;;;;;19.75;66.58;99980.41;5163732;28;20036;-88
2023/07/01 08:16:59;;;;;;;0.60;0.60;;;;;;;19.88;65.65;99979.47;5170916;28;20035;-87
2023/07/01 08:19:50;;;;;;;0.32;0.30;;;;;;;19.89;65.50;99983.84;5168417;28;20051;-85
2023/07/01 08:22:40;;;;;;;0.55;0.55;;;;;;;19.73;67.13;99977.03;5165229;28;20027;-86
2023/07/01 08:25:31;;;;;;;0.28;0.28;;;;;;;19.85;65.75;99982.41;5148370;28;20044;-88
2023/07/01 08:28:22;;;;;;;0.20;0.20;;;;;;;19.97;65.46;99984.09;5152593;28;20080;-88
2023/07/01 08:31:13;;;;;;;0.20;0.20;;;;;;;19.52;67.69;99986.66;5170117;28;20031;-87
2023/07/01 08:34:04;;;;;;;0.20;0.20;;;;;;;19.42;68.29;99983.88;5150490;28;20064;-89
2023/07/01 08:36:55;;;;;;;0.50;0.50;;;;;;;19.36;68.75;99985.19;5147924;28;20031;-85
2023/07/01 08:39:46;;;;;;;0.20;0.20;;;;;;;19.54;68.09;99979.41;5162036;28;20043;-90
2023/07/01 08:42:43;;;;;;;0.20;0.20;;;;;;;19.19;70.50;99978.44;5168152;28;20478;-90
2023/07/01 08:45:34;;;;;;;0.30;0.30;;;;;;;19.03;70.73;99981.44;5187651;28;20042;-85
2023/07/01 08:48:26;;;;;;;0.43;0.40;;;;;;;19.32;69.97;99983.69;5171052;28;20119;-84
2023/07/01 08:51:32;;;;;;;0.20;0.20;;;;;;;19.48;68.85;99980.72;5157462;28;20028;-87
2023/07/01 08:54:24;;;;;;;2.40;1.30;;;;;;;19.45;69.38;99972.97;5166114;28;20046;-85
2023/07/01 08:57:15;;;;;;;0.20;0.20;;;;;;;19.52;68.09;99970.69;5165962;28;20016;-85
2023/07/01 09:00:12;;;;;;;1.38;0.88;;;;;;;19.46;70.10;99964.88;5169015;28;20646;-89
2023/07/01 09:03:03;;;;;;;0.20;0.20;;;;;;;19.48;69.73;99957.63;5097121;28;21409;-86
2023/07/01 09:05:54;;;;;;;0.20;0.20;;;;;;;19.35;70.48;99970.19;5176754;28;20279;-86
2023/07/01 09:08:45;;;;;;;0.20;0.20;;;;;;;19.48;68.98;99956.78;5182268;28;20024;-87
2023/07/01 09:11:36;;;;;;;0.32;0.32;;;;;;;19.59;68.41;99961.28;5155647;28;20058;-86
2023/07/01 09:14:27;;;;;;;0.20;0.20;;;;;;;19.25;70.59;99955.88;5151742;28;20059;-88
2023/07/01 09:17:27;;;;;;;0.40;0.40;;;;;;;19.56;68.56;99959.72;5158246;28;20106;-86
2023/07/01 09:20:18;;;;;;;0.20;0.20;;;;;;;19.40;69.64;99956.53;5164228;28;20086;-87
2023/07/01 09:23:08;;;;;;;0.30;0.30;;;;;;;19.41;70.20;99960.88;5100913;28;20035;-87
2023/07/01 09:26:08;;;;;;;0.40;0.40;;;;;;;19.13;71.44;99963.81;5174629;28;20032;-88
2023/07/01 09:29:07;;;;;;;0.20;0.20;;;;;;;19.05;72.55;99965.34;5172209;28;20651;-88
2023/07/01 09:31:58;;;;;;;0.20;0.20;;;;;;;18.95;74.59;99962.53;5169084;28;20119;-90
2023/07/01 09:34:55;;;;;;;0.20;0.20;;;;;;;19.24;74.50;99956.84;5164727;28;20032;-90
2023/07/01 09:38:01;;;;;;;0.20;0.20;;;;;;;19.39;73.56;99952.16;5187604;28;20050;-91
2023/07/01 09:40:52;;;;;;;0.30;0.30;;;;;;;19.44;72.42;99952.66;5177985;28;20578;-91
2023/07/01 09:43:43;;;;;;;0.20;0.20;;;;;;;19.53;73.65;99953.78;5166834;28;20044;-88
2023/07/01 09:46:41;;;;;;;0.20;0.20;;;;;;;19.49;73.93;99954.00;5166348;28;20043;-91
2023/07/01 09:49:42;;;;;;;0.17;0.17;;;;;;;19.53;73.57;99948.47;5157973;28;20040;-92
2023/07/01 09:52:34;;;;;;;0.20;0.20;;;;;;;19.37;74.88;99944.31;5175008;28;20034;-90
2023/07/01 09:55:26;;;;;;;0.28;0.28;;;;;;;19.49;74.28;99938.03;5166589;28;20038;-90
2023/07/01 09:58:16;;;;;;;0.55;0.55;;;;;;;19.58;73.44;99935.63;5080273;28;20082;-91
2023/07/01 10:01:07;;;;;;;0.20;0.20;;;;;;;19.56;74.22;99934.91;5150004;28;20023;-90
2023/07/01 10:03:58;;;;;;;0.20;0.20;;;;;;;19.49;75.30;99932.72;5166020;28;20105;-92
2023/07/01 10:06:49;;;;;;;0.28;0.28;;;;;;;19.38;74.89;99930.03;5158842;28;20082;-91
2023/07/01 10:09:47;;;;;;;0.20;0.20;;;;;;;19.48;74.94;99936.34;5181427;28;20027;-89
2023/07/01 10:12:41;;;;;;;0.25;0.25;;;;;;;19.40;75.47;99929.94;5170144;28;20110;-92
2023/07/01 10:15:34;;;;;;;0.20;0.20;;;;;;;19.45;75.43;99925.09;5169289;28;20036;-92
2023/07/01 10:18:30;;;;;;;0.20;0.20;;;;;;;19.39;75.87;99929.06;5168137;28;20046;-90
2023/07/01 10:21:24;;;;;;;0.20;0.20;;;;;;;19.42;76.72;99914.72;5151606;28;20301;-92
2023/07/01 10:24:34;;;;;;;0.20;0.20;;;;;;;19.69;74.21;99911.72;5151430;28;20036;-92
2023/07/01 10:27:41;;;;;;;0.20;0.20;;;;;;;19.76;74.96;99909.38;5172008;28;20042;-94
2023/07/01 10:30:58;;;;;;;0.60;0.35;;;;;;;19.56;75.37;99919.81;5163048;28;20201;-91
2023/07/01 10:33:50;;;;;;;1.27;1.17;;;;;;;19.60;75.52;99913.25;5147987;28;20039;-92
2023/07/01 10:37:11;;;;;;;0.30;0.30;;;;;;;19.55;74.65;99909.25;5166885;28;20039;-93
2023/07/01 10:40:28;;;;;;;0.20;0.20;;;;;;;19.41;75.13;99916.50;5161475;28;20529;-92
2023/07/01 10:43:29;;;;;;;0.20;0.20;;;;;;;19.41;74.87;99908.53;5165958;28;20032;-93
2023/07/01 10:46:24;;;;;;;0.20;0.20;;;;;;;19.42;75.45;99915.53;5169580;28;20059;-96
2023/07/01 10:49:16;;;;;;;0.55;0.55;;;;;;;19.40;74.87;99914.81;5200223;22;20022;-79
2023/07/01 10:52:06;;;;;;;0.20;0.20;;;;;;;19.35;75.13;99919.66;5175532;28;20081;-80
2023/07/01 10:55:00;;;;;;;0.20;0.20;;;;;;;19.33;75.71;99910.94;5163562;28;20028;-79
2023/07/01 10:58:21;;;;;;;0.50;0.50;;;;;;;19.31;75.93;99916.38;5168858;28;20034;-79
2023/07/01 11:01:41;;;;;;;0.20;0.20;;;;;;;19.45;75.13;99912.66;5112510;28;20347;-79
2023/07/01 11:04:51;;;;;;;0.20;0.20;;;;;;;19.40;75.71;99906.00;5180593;28;20643;-79
2023/07/01 11:07:43;;;;;;;0.32;0.32;;;;;;;19.30;75.74;99908.50;5168523;28;20035;-79
2023/07/01 11:10:34;;;;;;;0.20;0.20;;;;;;;19.46;74.23;99901.03;5163883;28;20035;-79
2023/07/01 11:13:25;;;;;;;0.20;0.20;;;;;;;19.42;74.79;99894.25;5108719;28;20047;-79
2023/07/01 11:16:16;;;;;;;0.20;0.20;;;;;;;19.37;75.41;99901.75;5167120;28;20122;-79
2023/07/01 11:19:09;;;;;;;0.43;0.43;;;;;;;19.46;75.04;99906.34;5171064;28;20035;-79
2023/07/01 11:22:01;;;;;;;0.20;0.20;;;;;;;19.62;75.40;99900.69;5168207;28;20181;-79
2023/07/01 11:25:02;;;;;;;0.25;0.25;;;;;;;19.62;74.69;99900.69;5168272;28;20097;-79
2023/07/01 11:27:52;;;;;;;0.25;0.25;;;;;;;19.77;73.53;99887.13;5172305;28;20019;-79
2023/07/01 11:30:43;;;;;;;0.20;0.20;;;;;;;19.73;73.59;99902.50;5168694;28;20402;-79
2023/07/01 11:33:34;;;;;;;0.20;0.20;;;;;;;19.76;72.85;99896.94;5179377;28;20050;-79
2023/07/01 11:36:35;;;;;;;0.30;0.30;;;;;;;19.85;73.38;99889.22;5116149;29;20053;-79
2023/07/01 11:39:27;;;;;;;1.35;0.85;;;;;;;20.02;72.63;99891.41;5181494;28;20476;-79
2023/07/01 11:42:18;;;;;;;0.30;0.30;;;;;;;19.84;71.92;99885.69;5192873;28;20413;-79
2023/07/01 11:45:09;;;;;;;0.20;0.20;;;;;;;19.85;72.22;99889.22;5157670;28;20111;-79
2023/07/01 11:48:00;;;;;;;0.20;0.20;;;;;;;19.74;73.14;99898.03;5183552;28;20039;-79
2023/07/01 11:50:51;;;;;;;0.30;0.30;;;;;;;19.72;73.26;99892.81;5170570;28;20134;-79
2023/07/01 11:53:58;;;;;;;0.20;0.20;;;;;;;19.87;72.74;99888.13;5114765;28;20035;-78
2023/07/01 11:56:52;;;;;;;0.20;0.20;;;;;;;19.94;71.76;99892.00;5183987;28;20039;-79
2023/07/01 11:59:47;;;;;;;0.20;0.20;;;;;;;19.82;73.04;99890.28;5172520;28;20035;-79
2023/07/01 12:02:38;;;;;;;0.68;0.68;;;;;;;19.91;73.46;99886.06;5173794;28;20031;-79
2023/07/01 12:05:31;;;;;;;0.20;0.20;;;;;;;19.99;72.66;99896.13;5181977;28;20335;-78
2023/07/01 12:08:23;;;;;;;0.65;0.50;;;;;;;19.98;72.07;99895.25;5170395;28;20039;-79
2023/07/01 12:11:15;;;;;;;0.40;0.40;;;;;;;19.91;72.27;99886.06;5114332;28;20042;-79
2023/07/01 12:14:19;;;;;;;0.28;0.28;;;;;;;19.95;72.45;99891.03;5180895;28;20094;-79
2023/07/01 12:17:29;;;;;;;0.17;0.17;;;;;;;19.97;72.21;99882.91;5166802;28;20063;-79
2023/07/01 12:20:20;;;;;;;0.30;0.30;;;;;;;20.02;72.24;99885.22;5172428;28;20073;-79
2023/07/01 12:23:11;;;;;;;0.13;0.13;;;;;;;20.07;72.11;99877.72;5112445;28;20043;-79
2023/07/01 12:26:02;;;;;;;0.30;0.30;;;;;;;20.18;71.75;99890.16;5170500;28;20464;-79
2023/07/01 12:28:53;;;;;;;0.20;0.20;;;;;;;20.17;72.28;99888.47;5181830;28;20268;-79
2023/07/01 12:31:44;;;;;;;0.30;0.30;;;;;;;20.20;72.32;99882.91;5174903;28;20339;-79
2023/07/01 12:34:35;;;;;;;0.20;0.20;;;;;;;20.15;72.27;99885.94;5174326;28;20035;-79
2023/07/01 12:37:26;;;;;;;0.20;0.20;;;;;;;20.26;72.44;99883.22;5174412;28;20031;-79
2023/07/01 12:40:17;;;;;;;0.30;0.30;;;;;;;20.28;72.00;99881.28;5168897;28;20051;-79
2023/07/01 12:43:10;;;;;;;0.30;0.30;;;;;;;20.34;71.69;99887.94;5168200;28;20027;-79
2023/07/01 12:46:00;;;;;;;0.50;0.50;;;;;;;20.38;70.87;99880.53;5175487;28;20037;-79
2023/07/01 12:49:02;;;;;;;0.30;0.30;;;;;;;20.34;71.63;99887.94;5182093;28;20275;-79
2023/07/01 12:51:52;;;;;;;0.30;0.30;;;;;;;20.43;71.50;99891.66;5166738;28;20050;-79
2023/07/01 12:54:43;;;;;;;0.45;0.35;;;;;;;20.33;73.26;99896.91;5167432;28;20040;-79
2023/07/01 12:57:35;;;;;;;0.20;0.20;;;;;;;20.38;74.12;99894.69;5170614;28;20054;-79
2023/07/01 13:00:26;;;;;;;0.25;0.25;;;;;;;20.24;76.17;99902.97;5184461;28;20035;-79
2023/07/01 13:03:17;;;;;;;0.20;0.20;;;;;;;20.21;76.01;99901.41;5114993;28;20602;-79
2023/07/01 13:06:21;;;;;;;0.20;0.20;;;;;;;20.08;77.14;99874.94;5168049;28;20398;-78
2023/07/01 13:09:12;;;;;;;0.25;0.25;;;;;;;20.36;76.64;99863.84;5176361;28;20439;-79
2023/07/01 13:12:03;;;;;;;0.30;0.30;;;;;;;20.45;76.24;99865.75;5150908;28;20456;-79
2023/07/01 13:14:56;;;;;;;0.20;0.20;;;;;;;20.52;72.93;99871.44;5115330;28;20046;-79
2023/07/01 13:17:48;;;;;;;0.20;0.20;;;;;;;20.57;71.03;99869.22;5189936;28;20774;-79
2023/07/01 13:20:39;;;;;;;0.22;0.22;;;;;;;20.67;69.99;99864.81;5186412;28;20306;-79
2023/07/01 13:23:30;;;;;;;0.32;0.30;;;;;;;20.79;69.25;99862.97;5147852;28;20169;-79
2023/07/01 13:26:27;;;;;;;0.30;0.30;;;;;;;20.89;68.97;99863.03;5166694;28;20031;-79
2023/07/01 13:29:20;;;;;;;0.20;0.20;;;;;;;21.04;69.32;99856.41;5116722;28;20615;-79
2023/07/01 13:32:10;;;;;;;0.20;0.20;;;;;;;21.16;68.07;99851.84;5182687;28;20261;-79
2023/07/01 13:35:01;;;;;;;0.20;0.20;;;;;;;21.34;68.36;99846.78;5142606;28;20089;-79
2023/07/01 13:38:12;;;;;;;0.25;0.25;;;;;;;21.56;68.61;99852.91;5164479;28;20042;-79